Time,TemperatureF,DewpointF,PressureIn,WindDirection,WindDirectionDegrees,WindSpeedMPH,WindSpeedGustMPH,Humidity,HourlyPrecipIn,Conditions,Clouds,dailyrainin,SoftwareType,DateUTC
2013-03-05 00:00:00,34.0,23.1,29.82,NNW,338,6.5,6.5,64,0.00,,---,0.00,VWS V14.01,2013-03-05 06:00:00,
2013-03-05 00:05:00,34.0,22.7,29.82,NNW,338,8.1,8.1,63,0.00,,---,0.00,VWS V14.01,2013-03-05 06:05:00,
2013-03-05 00:10:00,33.8,21.8,29.79,NNW,338,6.3,6.3,61,0.00,,---,0.00,VWS V14.01,2013-03-05 06:10:00,
2013-03-05 00:15:00,33.6,21.2,29.79,WNW,292,6.3,6.3,60,0.00,,---,0.00,VWS V14.01,2013-03-05 06:15:00,
2013-03-05 00:20:00,33.1,20.3,29.79,NNW,338,5.6,7.6,59,0.00,,---,0.00,VWS V14.01,2013-03-05 06:20:00,
2013-03-05 00:25:00,32.9,19.8,29.79,WNW,292,4.0,4.0,58,0.00,,---,0.00,VWS V14.01,2013-03-05 06:25:00,
2013-03-05 00:30:00,32.7,20.0,29.79,NW,315,4.3,4.3,59,0.00,,---,0.00,VWS V14.01,2013-03-05 06:30:00,
2013-03-05 00:35:00,32.7,20.0,29.79,NW,315,3.8,3.8,59,0.00,,---,0.00,VWS V14.01,2013-03-05 06:35:00,
2013-03-05 00:40:00,32.5,19.8,29.82,WNW,292,8.7,8.7,59,0.00,,---,0.00,VWS V14.01,2013-03-05 06:40:00,
2013-03-05 00:45:00,32.5,19.4,29.82,NW,315,3.8,3.8,58,0.00,,---,0.00,VWS V14.01,2013-03-05 06:45:00,
2013-03-05 00:50:00,32.4,18.8,29.82,NW,315,7.6,7.6,57,0.00,,---,0.00,VWS V14.01,2013-03-05 06:50:00,
2013-03-05 00:55:00,32.2,18.3,29.82,WNW,292,11.0,12.8,56,0.00,,---,0.00,VWS V14.01,2013-03-05 06:55:00,
2013-03-05 01:00:00,32.2,18.3,29.82,WNW,292,9.8,9.8,56,0.00,,---,0.00,VWS V14.01,2013-03-05 07:00:00,
2013-03-05 01:05:00,32.0,18.1,29.82,WNW,292,3.4,6.5,56,0.00,,---,0.00,VWS V14.01,2013-03-05 07:05:00,
2013-03-05 01:10:00,31.8,18.3,29.82,WNW,292,8.1,8.1,57,0.00,,---,0.00,VWS V14.01,2013-03-05 07:10:00,
2013-03-05 01:15:00,31.6,18.2,29.82,NNW,338,5.6,5.6,57,0.00,,---,0.00,VWS V14.01,2013-03-05 07:15:00,
2013-03-05 01:20:00,31.5,18.0,29.82,West,270,5.6,5.6,57,0.00,,---,0.00,VWS V14.01,2013-03-05 07:20:00,
2013-03-05 01:26:00,31.1,18.1,29.85,NNW,338,8.5,8.5,58,0.00,,---,0.00,VWS V14.01,2013-03-05 07:26:00,
2013-03-05 01:31:00,31.1,18.1,29.85,WNW,292,10.3,10.3,58,0.00,,---,0.00,VWS V14.01,2013-03-05 07:31:00,
2013-03-05 01:36:00,30.6,17.6,29.85,West,270,3.4,5.8,58,0.00,,---,0.00,VWS V14.01,2013-03-05 07:36:00,
2013-03-05 01:41:00,30.4,17.4,29.85,WNW,292,6.3,7.4,58,0.00,,---,0.00,VWS V14.01,2013-03-05 07:41:00,
2013-03-05 01:46:00,30.2,17.6,29.85,WNW,292,10.1,10.7,59,0.00,,---,0.00,VWS V14.01,2013-03-05 07:46:00,
2013-03-05 01:51:00,29.8,17.3,29.85,NNW,338,6.0,6.0,59,0.00,,---,0.00,VWS V14.01,2013-03-05 07:51:00,
2013-03-05 01:56:00,29.7,17.1,29.85,WNW,292,10.1,10.1,59,0.00,,---,0.00,VWS V14.01,2013-03-05 07:56:00,
2013-03-05 02:01:00,29.5,16.9,29.85,NNE,22,2.9,2.9,59,0.00,,---,0.00,VWS V14.01,2013-03-05 08:01:00,
2013-03-05 02:06:00,29.5,16.9,29.85,WNW,292,4.0,4.0,59,0.00,,---,0.00,VWS V14.01,2013-03-05 08:06:00,
2013-03-05 02:11:00,29.5,16.9,29.85,SSW,202,6.0,6.0,59,0.00,,---,0.00,VWS V14.01,2013-03-05 08:11:00,
2013-03-05 02:16:00,29.3,16.8,29.85,NW,315,6.3,6.3,59,0.00,,---,0.00,VWS V14.01,2013-03-05 08:16:00,
2013-03-05 02:21:00,29.3,16.8,29.85,WNW,292,12.8,12.8,59,0.00,,---,0.00,VWS V14.01,2013-03-05 08:21:00,
2013-03-05 02:26:00,29.1,16.6,29.85,West,270,12.3,12.3,59,0.00,,---,0.00,VWS V14.01,2013-03-05 08:26:00,
2013-03-05 02:31:00,29.1,16.6,29.85,WNW,292,7.4,7.4,59,0.00,,---,0.00,VWS V14.01,2013-03-05 08:31:00,
2013-03-05 02:36:00,28.9,16.4,29.85,WNW,292,5.6,5.6,59,0.00,,---,0.00,VWS V14.01,2013-03-05 08:36:00,
2013-03-05 02:41:00,28.8,16.2,29.85,West,270,8.5,8.5,59,0.00,,---,0.00,VWS V14.01,2013-03-05 08:41:00,
2013-03-05 02:46:00,28.6,16.1,29.85,NNW,338,3.8,3.8,59,0.00,,---,0.00,VWS V14.01,2013-03-05 08:46:00,
2013-03-05 02:51:00,28.4,15.9,29.85,NNW,338,5.6,5.6,59,0.00,,---,0.00,VWS V14.01,2013-03-05 08:51:00,
2013-03-05 02:56:00,28.2,16.1,29.85,WNW,292,5.8,7.4,60,0.00,,---,0.00,VWS V14.01,2013-03-05 08:56:00,
2013-03-05 03:01:00,28.0,16.0,29.85,WNW,292,2.5,6.0,60,0.00,,---,0.00,VWS V14.01,2013-03-05 09:01:00,
2013-03-05 03:06:00,27.9,15.8,29.85,WNW,292,5.4,5.4,60,0.00,,---,0.00,VWS V14.01,2013-03-05 09:06:00,
2013-03-05 03:11:00,27.9,15.8,29.85,WNW,292,3.6,3.6,60,0.00,,---,0.00,VWS V14.01,2013-03-05 09:11:00,
2013-03-05 03:16:00,27.9,16.2,29.85,WNW,292,4.9,4.9,61,0.00,,---,0.00,VWS V14.01,2013-03-05 09:16:00,
2013-03-05 03:21:00,27.9,16.2,29.85,WSW,248,3.8,3.8,61,0.00,,---,0.00,VWS V14.01,2013-03-05 09:21:00,
2013-03-05 03:26:00,27.9,16.2,29.85,NW,315,6.9,6.9,61,0.00,,---,0.00,VWS V14.01,2013-03-05 09:26:00,
2013-03-05 03:31:00,28.0,16.3,29.85,North,0,6.0,6.0,61,0.00,,---,0.00,VWS V14.01,2013-03-05 09:31:00,
2013-03-05 03:36:00,28.0,16.0,29.85,WNW,292,3.8,4.3,60,0.00,,---,0.00,VWS V14.01,2013-03-05 09:36:00,
2013-03-05 03:41:00,27.9,15.8,29.85,WNW,292,6.3,6.3,60,0.00,,---,0.00,VWS V14.01,2013-03-05 09:41:00,
2013-03-05 03:46:00,27.9,15.4,29.85,WNW,292,4.9,4.9,59,0.00,,---,0.00,VWS V14.01,2013-03-05 09:46:00,
2013-03-05 03:51:00,27.7,15.2,29.85,WNW,292,5.8,6.0,59,0.00,,---,0.00,VWS V14.01,2013-03-05 09:51:00,
2013-03-05 03:56:00,27.3,14.5,29.85,WNW,292,10.1,10.1,58,0.00,,---,0.00,VWS V14.01,2013-03-05 09:56:00,
2013-03-05 04:01:00,27.0,14.2,29.85,NW,315,10.7,10.7,58,0.00,,---,0.00,VWS V14.01,2013-03-05 10:01:00,
2013-03-05 04:06:00,26.8,14.0,29.85,NW,315,6.3,6.3,58,0.00,,---,0.00,VWS V14.01,2013-03-05 10:06:00,
2013-03-05 04:11:00,26.8,14.0,29.85,NNW,338,6.3,10.7,58,0.00,,---,0.00,VWS V14.01,2013-03-05 10:11:00,
2013-03-05 04:16:00,26.4,13.7,29.85,NW,315,6.3,6.3,58,0.00,,---,0.00,VWS V14.01,2013-03-05 10:16:00,
2013-03-05 04:21:00,26.2,13.5,29.85,WNW,292,3.4,3.4,58,0.00,,---,0.00,VWS V14.01,2013-03-05 10:21:00,
2013-03-05 04:26:00,26.2,13.5,29.85,WNW,292,10.1,10.1,58,0.00,,---,0.00,VWS V14.01,2013-03-05 10:26:00,
2013-03-05 04:31:00,26.1,13.3,29.85,NNW,338,5.6,5.6,58,0.00,,---,0.00,VWS V14.01,2013-03-05 10:31:00,
2013-03-05 04:36:00,26.1,13.3,29.85,NNW,338,4.9,9.8,58,0.00,,---,0.00,VWS V14.01,2013-03-05 10:36:00,
2013-03-05 04:41:00,25.9,13.1,29.85,WNW,292,3.8,3.8,58,0.00,,---,0.00,VWS V14.01,2013-03-05 10:41:00,
2013-03-05 04:46:00,25.7,13.0,29.85,NNW,338,6.5,6.5,58,0.00,,---,0.00,VWS V14.01,2013-03-05 10:46:00,
2013-03-05 04:51:00,25.5,12.8,29.85,WNW,292,4.5,4.5,58,0.00,,---,0.00,VWS V14.01,2013-03-05 10:51:00,
2013-03-05 04:56:00,25.5,12.8,29.85,WNW,292,8.5,11.0,58,0.00,,---,0.00,VWS V14.01,2013-03-05 10:56:00,
2013-03-05 05:01:00,25.3,12.6,29.85,WNW,292,2.9,7.4,58,0.00,,---,0.00,VWS V14.01,2013-03-05 11:01:00,
2013-03-05 05:06:00,25.3,12.6,29.85,WNW,292,3.8,5.6,58,0.00,,---,0.00,VWS V14.01,2013-03-05 11:06:00,
2013-03-05 05:11:00,25.2,12.5,29.85,WNW,292,6.3,6.3,58,0.00,,---,0.00,VWS V14.01,2013-03-05 11:11:00,
2013-03-05 05:16:00,25.2,12.5,29.85,NNW,338,4.0,4.0,58,0.00,,---,0.00,VWS V14.01,2013-03-05 11:16:00,
2013-03-05 05:21:00,25.2,12.5,29.85,WNW,292,3.4,9.4,58,0.00,,---,0.00,VWS V14.01,2013-03-05 11:21:00,
2013-03-05 05:26:00,25.2,12.5,29.88,WNW,292,4.9,4.9,58,0.00,,---,0.00,VWS V14.01,2013-03-05 11:26:00,
2013-03-05 05:31:00,25.0,12.3,29.88,NW,315,3.1,5.8,58,0.00,,---,0.00,VWS V14.01,2013-03-05 11:31:00,
2013-03-05 05:36:00,25.0,12.3,29.88,WSW,248,5.6,5.6,58,0.00,,---,0.00,VWS V14.01,2013-03-05 11:36:00,
2013-03-05 05:41:00,25.2,12.5,29.85,WNW,292,5.6,5.6,58,0.00,,---,0.00,VWS V14.01,2013-03-05 11:41:00,
2013-03-05 05:46:00,25.2,12.5,29.85,NW,315,6.0,6.0,58,0.00,,---,0.00,VWS V14.01,2013-03-05 11:46:00,
2013-03-05 05:51:00,25.3,12.6,29.85,WNW,292,4.9,5.8,58,0.00,,---,0.00,VWS V14.01,2013-03-05 11:51:00,
2013-03-05 05:56:00,25.3,12.6,29.85,WNW,292,3.8,5.6,58,0.00,,---,0.00,VWS V14.01,2013-03-05 11:56:00,
2013-03-05 06:01:00,25.5,13.2,29.85,West,270,2.9,9.6,59,0.00,,---,0.00,VWS V14.01,2013-03-05 12:01:00,
2013-03-05 06:06:00,25.7,13.4,29.85,West,270,5.4,6.5,59,0.00,,---,0.00,VWS V14.01,2013-03-05 12:06:00,
2013-03-05 06:11:00,25.7,13.4,29.85,WNW,292,4.9,8.1,59,0.00,,---,0.00,VWS V14.01,2013-03-05 12:11:00,
2013-03-05 06:16:00,25.9,13.5,29.85,NNW,338,3.8,3.8,59,0.00,,---,0.00,VWS V14.01,2013-03-05 12:16:00,
2013-03-05 06:21:00,25.9,13.5,29.85,WSW,248,6.3,7.6,59,0.00,,---,0.00,VWS V14.01,2013-03-05 12:21:00,
2013-03-05 06:26:00,26.1,13.7,29.85,WNW,292,7.6,7.6,59,0.00,,---,0.00,VWS V14.01,2013-03-05 12:26:00,
2013-03-05 06:31:00,26.1,13.7,29.85,West,270,6.7,9.8,59,0.00,,---,0.00,VWS V14.01,2013-03-05 12:31:00,
2013-03-05 06:36:00,26.2,13.9,29.85,WNW,292,5.8,9.8,59,0.00,,---,0.00,VWS V14.01,2013-03-05 12:36:00,
2013-03-05 06:41:00,26.2,14.3,29.85,WNW,292,6.5,6.5,60,0.00,,---,0.00,VWS V14.01,2013-03-05 12:41:00,
2013-03-05 06:46:00,26.4,14.4,29.85,NW,315,11.0,11.0,60,0.00,,---,0.00,VWS V14.01,2013-03-05 12:46:00,
2013-03-05 06:51:00,26.6,14.6,29.85,WNW,292,3.8,8.1,60,0.00,,---,0.00,VWS V14.01,2013-03-05 12:51:00,
2013-03-05 06:56:00,26.6,14.6,29.85,WNW,292,6.5,6.5,60,0.00,,---,0.00,VWS V14.01,2013-03-05 12:56:00,
2013-03-05 07:01:00,26.8,14.8,29.85,WNW,292,7.4,7.4,60,0.00,,---,0.00,VWS V14.01,2013-03-05 13:01:00,
2013-03-05 07:06:00,27.0,14.9,29.85,WNW,292,9.6,9.6,60,0.00,,---,0.00,VWS V14.01,2013-03-05 13:06:00,
2013-03-05 07:11:00,27.0,14.9,29.85,WNW,292,8.7,8.7,60,0.00,,---,0.00,VWS V14.01,2013-03-05 13:11:00,
2013-03-05 07:16:00,27.0,14.9,29.85,WNW,292,6.0,6.0,60,0.00,,---,0.00,VWS V14.01,2013-03-05 13:16:00,
2013-03-05 07:22:00,27.1,15.1,29.85,WNW,292,10.5,10.5,60,0.00,,---,0.00,VWS V14.01,2013-03-05 13:22:00,
2013-03-05 07:26:00,27.1,15.1,29.85,WNW,292,6.5,7.6,60,0.00,,---,0.00,VWS V14.01,2013-03-05 13:26:00,
2013-03-05 07:31:00,27.1,15.1,29.85,WNW,292,5.8,5.8,60,0.00,,---,0.00,VWS V14.01,2013-03-05 13:31:00,
2013-03-05 07:37:00,27.1,15.1,29.85,West,270,5.4,5.4,60,0.00,,---,0.00,VWS V14.01,2013-03-05 13:37:00,
2013-03-05 07:42:00,27.1,15.5,29.88,West,270,9.8,9.8,61,0.00,,---,0.00,VWS V14.01,2013-03-05 13:42:00,
2013-03-05 07:47:00,27.1,15.5,29.88,NW,315,10.1,10.1,61,0.00,,---,0.00,VWS V14.01,2013-03-05 13:47:00,
2013-03-05 07:52:00,27.1,15.5,29.88,WNW,292,6.5,12.3,61,0.00,,---,0.00,VWS V14.01,2013-03-05 13:52:00,
2013-03-05 07:57:00,27.3,15.7,29.88,NNW,338,4.9,6.0,61,0.00,,---,0.00,VWS V14.01,2013-03-05 13:57:00,
2013-03-05 08:02:00,27.3,15.7,29.88,WNW,292,9.6,9.6,61,0.00,,---,0.00,VWS V14.01,2013-03-05 14:02:00,
2013-03-05 08:07:00,27.3,16.0,29.88,WNW,292,15.9,15.9,62,0.00,,---,0.00,VWS V14.01,2013-03-05 14:07:00,
2013-03-05 08:12:00,27.5,16.2,29.88,NNW,338,12.3,12.3,62,0.00,,---,0.00,VWS V14.01,2013-03-05 14:12:00,
2013-03-05 08:17:00,27.5,16.2,29.88,WNW,292,7.4,7.4,62,0.00,,---,0.00,VWS V14.01,2013-03-05 14:17:00,
2013-03-05 08:22:00,27.7,16.4,29.88,WNW,292,9.8,9.8,62,0.00,,---,0.00,VWS V14.01,2013-03-05 14:22:00,
2013-03-05 08:27:00,27.7,16.4,29.88,WNW,292,8.7,8.7,62,0.00,,---,0.00,VWS V14.01,2013-03-05 14:27:00,
2013-03-05 08:32:00,27.9,16.5,29.88,ENE,68,4.7,4.7,62,0.00,,---,0.00,VWS V14.01,2013-03-05 14:32:00,
2013-03-05 08:37:00,28.0,16.3,29.88,West,270,6.9,6.9,61,0.00,,---,0.00,VWS V14.01,2013-03-05 14:37:00,
2013-03-05 08:42:00,28.2,16.5,29.88,NW,315,14.3,14.3,61,0.00,,---,0.00,VWS V14.01,2013-03-05 14:42:00,
2013-03-05 08:47:00,28.4,16.7,29.88,WNW,292,9.8,9.8,61,0.00,,---,0.00,VWS V14.01,2013-03-05 14:47:00,
2013-03-05 08:52:00,28.4,16.7,29.88,WNW,292,8.7,8.7,61,0.00,,---,0.00,VWS V14.01,2013-03-05 14:52:00,
2013-03-05 08:57:00,28.6,16.9,29.88,WNW,292,8.5,8.5,61,0.00,,---,0.00,VWS V14.01,2013-03-05 14:57:00,
2013-03-05 09:02:00,28.9,17.2,29.88,WSW,248,8.5,8.5,61,0.00,,---,0.00,VWS V14.01,2013-03-05 15:02:00,
2013-03-05 09:07:00,29.3,17.5,29.88,NNW,338,10.5,18.1,61,0.00,,---,0.00,VWS V14.01,2013-03-05 15:07:00,
2013-03-05 09:12:00,29.3,16.8,29.88,NW,315,12.1,12.1,59,0.00,,---,0.00,VWS V14.01,2013-03-05 15:12:00,
2013-03-05 09:17:00,29.3,17.1,29.88,WNW,292,10.5,10.5,60,0.00,,---,0.00,VWS V14.01,2013-03-05 15:17:00,
2013-03-05 09:22:00,29.1,17.0,29.88,WNW,292,10.7,10.7,60,0.00,,---,0.00,VWS V14.01,2013-03-05 15:22:00,
2013-03-05 09:27:00,29.1,17.0,29.91,NW,315,6.0,6.9,60,0.00,,---,0.00,VWS V14.01,2013-03-05 15:27:00,
2013-03-05 09:32:00,29.5,17.3,29.91,WNW,292,23.0,23.0,60,0.00,,---,0.00,VWS V14.01,2013-03-05 15:32:00,
2013-03-05 09:37:00,29.5,17.3,29.91,West,270,6.7,6.7,60,0.00,,---,0.00,VWS V14.01,2013-03-05 15:37:00,
2013-03-05 09:42:00,29.5,17.3,29.91,NNW,338,12.8,12.8,60,0.00,,---,0.00,VWS V14.01,2013-03-05 15:42:00,
2013-03-05 09:47:00,29.5,17.3,29.91,WNW,292,10.5,16.6,60,0.00,,---,0.00,VWS V14.01,2013-03-05 15:47:00,
2013-03-05 09:52:00,29.5,17.3,29.91,NNW,338,12.8,12.8,60,0.00,,---,0.00,VWS V14.01,2013-03-05 15:52:00,
2013-03-05 09:57:00,29.7,17.5,29.91,NW,315,7.6,7.6,60,0.00,,---,0.00,VWS V14.01,2013-03-05 15:57:00,
2013-03-05 10:02:00,29.8,17.7,29.91,WNW,292,10.3,10.3,60,0.00,,---,0.00,VWS V14.01,2013-03-05 16:02:00,
2013-03-05 10:07:00,29.8,17.7,29.91,WNW,292,4.0,10.3,60,0.00,,---,0.00,VWS V14.01,2013-03-05 16:07:00,
2013-03-05 10:12:00,29.8,17.7,29.91,WNW,292,14.8,14.8,60,0.00,,---,0.00,VWS V14.01,2013-03-05 16:12:00,
2013-03-05 10:17:00,29.8,17.7,29.91,NNW,338,4.9,6.3,60,0.00,,---,0.00,VWS V14.01,2013-03-05 16:17:00,
2013-03-05 10:22:00,29.8,17.7,29.91,SW,225,10.5,10.5,60,0.00,,---,0.00,VWS V14.01,2013-03-05 16:22:00,
2013-03-05 10:27:00,29.8,18.0,29.94,WNW,292,8.1,12.8,61,0.00,,---,0.00,VWS V14.01,2013-03-05 16:27:00,
2013-03-05 10:32:00,29.7,17.5,29.94,West,270,10.5,10.5,60,0.00,,---,0.00,VWS V14.01,2013-03-05 16:32:00,
2013-03-05 10:37:00,29.7,17.9,29.94,WNW,292,11.0,17.7,61,0.00,,---,0.00,VWS V14.01,2013-03-05 16:37:00,
2013-03-05 10:42:00,29.7,17.9,29.94,NW,315,7.8,10.5,61,0.00,,---,0.00,VWS V14.01,2013-03-05 16:42:00,
2013-03-05 10:47:00,29.7,17.9,29.94,WNW,292,7.2,7.8,61,0.00,,---,0.00,VWS V14.01,2013-03-05 16:47:00,
2013-03-05 10:52:00,29.7,17.9,29.94,WNW,292,8.1,8.1,61,0.00,,---,0.00,VWS V14.01,2013-03-05 16:52:00,
2013-03-05 10:57:00,29.7,17.9,29.94,NNW,338,8.5,10.3,61,0.00,,---,0.00,VWS V14.01,2013-03-05 16:57:00,
2013-03-05 11:02:00,29.5,17.7,29.94,WNW,292,19.9,19.9,61,0.00,,---,0.00,VWS V14.01,2013-03-05 17:02:00,
2013-03-05 11:07:00,29.7,17.9,29.94,NNE,22,6.5,8.1,61,0.00,,---,0.00,VWS V14.01,2013-03-05 17:07:00,
2013-03-05 11:12:00,30.0,18.2,29.94,NNW,338,13.4,13.4,61,0.00,,---,0.00,VWS V14.01,2013-03-05 17:12:00,
2013-03-05 11:17:00,30.0,18.2,29.94,NNW,338,6.5,6.5,61,0.00,,---,0.00,VWS V14.01,2013-03-05 17:17:00,
2013-03-05 11:22:00,30.4,18.6,29.94,NW,315,7.6,7.6,61,0.00,,---,0.00,VWS V14.01,2013-03-05 17:22:00,
2013-03-05 11:27:00,30.4,18.2,29.97,North,0,11.2,11.2,60,0.00,,---,0.00,VWS V14.01,2013-03-05 17:27:00,
2013-03-05 11:32:00,30.4,18.2,29.97,NNE,22,6.9,11.4,60,0.00,,---,0.00,VWS V14.01,2013-03-05 17:32:00,
2013-03-05 11:37:00,30.2,18.0,29.97,NW,315,23.7,23.7,60,0.00,,---,0.00,VWS V14.01,2013-03-05 17:37:00,
2013-03-05 11:42:00,30.2,18.0,29.97,North,0,10.7,10.7,60,0.00,,---,0.00,VWS V14.01,2013-03-05 17:42:00,
2013-03-05 11:47:00,30.2,18.0,29.97,NNE,22,10.7,10.7,60,0.00,,---,0.00,VWS V14.01,2013-03-05 17:47:00,
2013-03-05 11:52:00,30.2,18.0,29.97,NW,315,8.7,8.7,60,0.00,,---,0.00,VWS V14.01,2013-03-05 17:52:00,
2013-03-05 11:57:00,30.2,18.0,29.97,WNW,292,14.1,14.1,60,0.00,,---,0.00,VWS V14.01,2013-03-05 17:57:00,
2013-03-05 12:02:00,30.0,17.8,29.97,WNW,292,15.2,15.2,60,0.00,,---,0.00,VWS V14.01,2013-03-05 18:02:00,
2013-03-05 12:07:00,30.0,17.8,29.97,WNW,292,6.9,15.7,60,0.00,,---,0.00,VWS V14.01,2013-03-05 18:07:00,
2013-03-05 12:12:00,30.2,17.6,29.97,NNE,22,7.4,7.4,59,0.00,,---,0.00,VWS V14.01,2013-03-05 18:12:00,
2013-03-05 12:17:00,30.4,17.4,29.97,NNW,338,7.8,7.8,58,0.00,,---,0.00,VWS V14.01,2013-03-05 18:17:00,
2013-03-05 12:22:00,30.4,17.4,29.97,NNW,338,7.8,7.8,58,0.00,,---,0.00,VWS V14.01,2013-03-05 18:22:00,
2013-03-05 12:27:00,30.4,17.4,29.97,WNW,292,16.3,16.3,58,0.00,,---,0.00,VWS V14.01,2013-03-05 18:27:00,
2013-03-05 12:32:00,30.4,17.4,29.97,WNW,292,15.7,15.7,58,0.00,,---,0.00,VWS V14.01,2013-03-05 18:32:00,
2013-03-05 12:37:00,30.2,17.2,29.97,WNW,292,9.0,9.0,58,0.00,,---,0.00,VWS V14.01,2013-03-05 18:37:00,
2013-03-05 12:42:00,29.8,16.9,29.97,WNW,292,16.1,18.1,58,0.00,,---,0.00,VWS V14.01,2013-03-05 18:42:00,
2013-03-05 12:47:00,29.8,16.9,29.97,SE,135,9.6,9.6,58,0.00,,---,0.00,VWS V14.01,2013-03-05 18:47:00,
2013-03-05 12:52:00,30.0,17.0,29.97,WNW,292,10.1,10.1,58,0.00,,---,0.00,VWS V14.01,2013-03-05 18:52:00,
2013-03-05 12:57:00,30.0,17.4,29.97,NNW,338,6.5,8.7,59,0.00,,---,0.00,VWS V14.01,2013-03-05 18:57:00,
2013-03-05 13:02:00,30.2,17.2,29.97,NNW,338,20.8,20.8,58,0.00,,---,0.00,VWS V14.01,2013-03-05 19:02:00,
2013-03-05 13:07:00,30.2,17.2,29.97,NNW,338,15.4,15.4,58,0.00,,---,0.00,VWS V14.01,2013-03-05 19:07:00,
2013-03-05 13:12:00,30.2,17.2,29.97,WNW,292,11.0,11.0,58,0.00,,---,0.00,VWS V14.01,2013-03-05 19:12:00,
2013-03-05 13:18:00,30.4,17.4,29.97,NW,315,8.5,8.5,58,0.00,,---,0.00,VWS V14.01,2013-03-05 19:18:00,
2013-03-05 13:23:00,30.2,17.2,29.97,WNW,292,7.6,12.5,58,0.00,,---,0.00,VWS V14.01,2013-03-05 19:23:00,
2013-03-05 13:28:00,30.2,17.2,30.00,NW,315,6.5,8.7,58,0.00,,---,0.00,VWS V14.01,2013-03-05 19:28:00,
2013-03-05 13:33:00,30.0,17.0,30.00,NNE,22,8.7,8.7,58,0.00,,---,0.00,VWS V14.01,2013-03-05 19:33:00,
2013-03-05 13:38:00,30.0,17.0,30.00,WNW,292,5.8,6.0,58,0.00,,---,0.00,VWS V14.01,2013-03-05 19:38:00,
2013-03-05 13:43:00,30.0,17.0,30.00,NNW,338,3.6,3.6,58,0.00,,---,0.00,VWS V14.01,2013-03-05 19:43:00,
2013-03-05 13:48:00,30.0,17.0,30.00,WNW,292,8.1,8.1,58,0.00,,---,0.00,VWS V14.01,2013-03-05 19:48:00,
2013-03-05 13:53:00,29.8,16.9,30.00,WNW,292,12.3,12.3,58,0.00,,---,0.00,VWS V14.01,2013-03-05 19:53:00,
2013-03-05 13:58:00,29.7,16.7,30.00,West,270,17.0,17.0,58,0.00,,---,0.00,VWS V14.01,2013-03-05 19:58:00,
2013-03-05 14:03:00,29.7,16.7,30.00,NNW,338,18.6,18.6,58,0.00,,---,0.00,VWS V14.01,2013-03-05 20:03:00,
2013-03-05 14:08:00,29.8,16.9,30.00,WNW,292,6.3,10.5,58,0.00,,---,0.00,VWS V14.01,2013-03-05 20:08:00,
2013-03-05 14:13:00,30.0,17.0,30.00,NNW,338,15.2,15.2,58,0.00,,---,0.00,VWS V14.01,2013-03-05 20:13:00,
2013-03-05 14:18:00,30.0,16.6,30.00,South,180,6.5,6.5,57,0.00,,---,0.00,VWS V14.01,2013-03-05 20:18:00,
2013-03-05 14:23:00,30.0,16.6,30.00,WNW,292,8.1,10.7,57,0.00,,---,0.00,VWS V14.01,2013-03-05 20:23:00,
2013-03-05 14:28:00,30.0,17.0,30.03,WNW,292,8.1,8.1,58,0.00,,---,0.00,VWS V14.01,2013-03-05 20:28:00,
2013-03-05 14:33:00,30.0,17.0,30.03,NNW,338,8.1,8.1,58,0.00,,---,0.00,VWS V14.01,2013-03-05 20:33:00,
2013-03-05 14:38:00,30.4,17.0,30.03,NNW,338,10.7,10.7,57,0.00,,---,0.00,VWS V14.01,2013-03-05 20:38:00,
2013-03-05 14:43:00,30.2,16.8,30.03,NE,45,7.8,19.2,57,0.00,,---,0.00,VWS V14.01,2013-03-05 20:43:00,
2013-03-05 14:48:00,30.2,16.8,30.03,North,0,13.0,13.0,57,0.00,,---,0.00,VWS V14.01,2013-03-05 20:48:00,
2013-03-05 14:53:00,30.9,17.1,30.03,West,270,8.7,8.7,56,0.00,,---,0.00,VWS V14.01,2013-03-05 20:53:00,
2013-03-05 14:58:00,30.9,16.7,30.03,NW,315,11.9,11.9,55,0.00,,---,0.00,VWS V14.01,2013-03-05 20:58:00,
2013-03-05 15:03:00,31.3,17.0,30.03,NW,315,5.4,6.0,55,0.00,,---,0.00,VWS V14.01,2013-03-05 21:03:00,
2013-03-05 15:08:00,31.3,16.6,30.03,WNW,292,11.4,11.4,54,0.00,,---,0.00,VWS V14.01,2013-03-05 21:08:00,
2013-03-05 15:13:00,31.5,17.2,30.03,ENE,68,7.4,7.4,55,0.00,,---,0.00,VWS V14.01,2013-03-05 21:13:00,
2013-03-05 15:18:00,32.0,17.7,30.03,NNW,338,6.5,6.5,55,0.00,,---,0.00,VWS V14.01,2013-03-05 21:18:00,
2013-03-05 15:23:00,32.2,17.4,30.03,NW,315,9.6,9.6,54,0.00,,---,0.00,VWS V14.01,2013-03-05 21:23:00,
2013-03-05 15:28:00,32.2,17.4,30.03,NW,315,11.0,11.0,54,0.00,,---,0.00,VWS V14.01,2013-03-05 21:28:00,
2013-03-05 15:33:00,31.6,16.9,30.03,NNW,338,6.5,8.5,54,0.00,,---,0.00,VWS V14.01,2013-03-05 21:33:00,
2013-03-05 15:38:00,31.5,16.8,30.03,NE,45,7.8,12.3,54,0.00,,---,0.00,VWS V14.01,2013-03-05 21:38:00,
2013-03-05 15:43:00,31.1,16.4,30.03,NW,315,6.5,9.6,54,0.00,,---,0.00,VWS V14.01,2013-03-05 21:43:00,
2013-03-05 15:48:00,31.5,17.2,30.03,SSW,202,9.6,9.6,55,0.00,,---,0.00,VWS V14.01,2013-03-05 21:48:00,
2013-03-05 15:53:00,31.3,16.6,30.03,WNW,292,4.0,9.2,54,0.00,,---,0.00,VWS V14.01,2013-03-05 21:53:00,
2013-03-05 15:58:00,31.5,17.2,30.03,NNW,338,4.3,7.2,55,0.00,,---,0.00,VWS V14.01,2013-03-05 21:58:00,
2013-03-05 16:03:00,31.3,16.6,30.03,NW,315,8.1,8.1,54,0.00,,---,0.00,VWS V14.01,2013-03-05 22:03:00,
2013-03-05 16:08:00,31.1,16.8,30.03,WNW,292,5.6,8.5,55,0.00,,---,0.00,VWS V14.01,2013-03-05 22:08:00,
2013-03-05 16:13:00,31.1,16.8,30.06,NW,315,8.7,8.7,55,0.00,,---,0.00,VWS V14.01,2013-03-05 22:13:00,
2013-03-05 16:18:00,31.5,17.2,30.06,WNW,292,7.2,7.2,55,0.00,,---,0.00,VWS V14.01,2013-03-05 22:18:00,
2013-03-05 16:23:00,32.0,17.7,30.06,NNW,338,10.3,10.3,55,0.00,,---,0.00,VWS V14.01,2013-03-05 22:23:00,
2013-03-05 16:28:00,31.8,17.1,30.06,WNW,292,9.2,9.2,54,0.00,,---,0.00,VWS V14.01,2013-03-05 22:28:00,
2013-03-05 16:33:00,31.6,17.3,30.06,SSW,202,6.7,6.7,55,0.00,,---,0.00,VWS V14.01,2013-03-05 22:33:00,
2013-03-05 16:38:00,31.3,17.0,30.06,WNW,292,4.9,7.6,55,0.00,,---,0.00,VWS V14.01,2013-03-05 22:38:00,
2013-03-05 16:43:00,31.3,17.0,30.06,NW,315,8.1,8.1,55,0.00,,---,0.00,VWS V14.01,2013-03-05 22:43:00,
2013-03-05 16:48:00,31.3,17.0,30.06,West,270,5.4,7.2,55,0.00,,---,0.00,VWS V14.01,2013-03-05 22:48:00,
2013-03-05 16:53:00,31.3,17.0,30.06,NNW,338,6.3,6.3,55,0.00,,---,0.00,VWS V14.01,2013-03-05 22:53:00,
2013-03-05 16:58:00,31.5,17.2,30.06,NNW,338,7.8,12.5,55,0.00,,---,0.00,VWS V14.01,2013-03-05 22:58:00,
2013-03-05 17:03:00,31.3,16.6,30.06,NW,315,6.5,6.5,54,0.00,,---,0.00,VWS V14.01,2013-03-05 23:03:00,
2013-03-05 17:08:00,31.8,17.1,30.06,South,180,12.3,12.3,54,0.00,,---,0.00,VWS V14.01,2013-03-05 23:08:00,
2013-03-05 17:13:00,31.8,17.1,30.06,WSW,248,9.4,9.4,54,0.00,,---,0.00,VWS V14.01,2013-03-05 23:13:00,
2013-03-05 17:18:00,31.5,16.8,30.06,NNW,338,6.5,6.5,54,0.00,,---,0.00,VWS V14.01,2013-03-05 23:18:00,
2013-03-05 17:23:00,30.9,16.2,30.06,NE,45,7.6,13.0,54,0.00,,---,0.00,VWS V14.01,2013-03-05 23:23:00,
2013-03-05 17:28:00,30.9,16.2,30.09,South,180,12.8,12.8,54,0.00,,---,0.00,VWS V14.01,2013-03-05 23:28:00,
2013-03-05 17:33:00,30.4,15.7,30.09,NNW,338,10.7,10.7,54,0.00,,---,0.00,VWS V14.01,2013-03-05 23:33:00,
2013-03-05 17:38:00,30.0,15.8,30.09,WNW,292,10.5,10.5,55,0.00,,---,0.00,VWS V14.01,2013-03-05 23:38:00,
2013-03-05 17:43:00,29.7,15.5,30.09,NNW,338,6.3,12.3,55,0.00,,---,0.00,VWS V14.01,2013-03-05 23:43:00,
2013-03-05 17:48:00,29.5,15.3,30.09,NNE,22,8.5,8.5,55,0.00,,---,0.00,VWS V14.01,2013-03-05 23:48:00,
2013-03-05 17:53:00,29.5,15.7,30.09,NW,315,3.4,3.4,56,0.00,,---,0.00,VWS V14.01,2013-03-05 23:53:00,
2013-03-05 17:58:00,29.3,15.6,30.09,WNW,292,6.5,6.5,56,0.00,,---,0.00,VWS V14.01,2013-03-05 23:58:00,
2013-03-05 18:03:00,29.1,15.4,30.09,NNW,338,3.8,3.8,56,0.00,,---,0.00,VWS V14.01,2013-03-06 00:03:00,
2013-03-05 18:08:00,29.1,15.4,30.09,NW,315,4.9,7.4,56,0.00,,---,0.00,VWS V14.01,2013-03-06 00:08:00,
2013-03-05 18:13:00,28.9,15.6,30.09,NW,315,2.9,2.9,57,0.00,,---,0.00,VWS V14.01,2013-03-06 00:13:00,
2013-03-05 18:18:00,28.8,15.5,30.09,NNW,338,4.3,8.1,57,0.00,,---,0.00,VWS V14.01,2013-03-06 00:18:00,
2013-03-05 18:23:00,28.6,15.3,30.09,WNW,292,5.6,5.6,57,0.00,,---,0.00,VWS V14.01,2013-03-06 00:23:00,
2013-03-05 18:28:00,28.2,15.0,30.09,WSW,248,3.6,6.3,57,0.00,,---,0.00,VWS V14.01,2013-03-06 00:28:00,
2013-03-05 18:33:00,27.9,14.6,30.09,WNW,292,10.3,10.3,57,0.00,,---,0.00,VWS V14.01,2013-03-06 00:33:00,
2013-03-05 18:38:00,27.9,14.6,30.09,NNE,22,6.5,6.5,57,0.00,,---,0.00,VWS V14.01,2013-03-06 00:38:00,
2013-03-05 18:43:00,27.7,14.4,30.09,NW,315,5.8,8.1,57,0.00,,---,0.00,VWS V14.01,2013-03-06 00:43:00,
2013-03-05 18:48:00,27.5,14.7,30.09,NW,315,11.0,11.0,58,0.00,,---,0.00,VWS V14.01,2013-03-06 00:48:00,
2013-03-05 18:53:00,27.5,14.7,30.09,NNW,338,5.6,5.6,58,0.00,,---,0.00,VWS V14.01,2013-03-06 00:53:00,
2013-03-05 18:58:00,27.5,15.1,30.09,NNW,338,2.7,2.7,59,0.00,,---,0.00,VWS V14.01,2013-03-06 00:58:00,
2013-03-05 19:03:00,27.5,15.1,30.09,NNW,338,3.8,3.8,59,0.00,,---,0.00,VWS V14.01,2013-03-06 01:03:00,
2013-03-05 19:08:00,27.5,15.1,30.09,WNW,292,4.9,4.9,59,0.00,,---,0.00,VWS V14.01,2013-03-06 01:08:00,
2013-03-05 19:13:00,27.5,15.4,30.09,WNW,292,3.1,6.0,60,0.00,,---,0.00,VWS V14.01,2013-03-06 01:13:00,
2013-03-05 19:19:00,27.3,15.3,30.09,WNW,292,5.4,5.4,60,0.00,,---,0.00,VWS V14.01,2013-03-06 01:19:00,
2013-03-05 19:24:00,27.3,15.3,30.09,WNW,292,3.8,3.8,60,0.00,,---,0.00,VWS V14.01,2013-03-06 01:24:00,
2013-03-05 19:29:00,27.3,15.3,30.09,NNW,338,6.3,6.3,60,0.00,,---,0.00,VWS V14.01,2013-03-06 01:29:00,
2013-03-05 19:34:00,27.1,15.1,30.09,West,270,3.6,3.6,60,0.00,,---,0.00,VWS V14.01,2013-03-06 01:34:00,
2013-03-05 19:39:00,27.1,15.1,30.09,ENE,68,3.6,3.6,60,0.00,,---,0.00,VWS V14.01,2013-03-06 01:39:00,
2013-03-05 19:44:00,27.1,15.1,30.09,NW,315,5.4,5.4,60,0.00,,---,0.00,VWS V14.01,2013-03-06 01:44:00,
2013-03-05 19:49:00,27.1,15.1,30.09,WNW,292,5.8,6.0,60,0.00,,---,0.00,VWS V14.01,2013-03-06 01:49:00,
2013-03-05 19:54:00,27.0,14.9,30.09,NNW,338,6.0,6.0,60,0.00,,---,0.00,VWS V14.01,2013-03-06 01:54:00,
2013-03-05 19:59:00,26.8,14.8,30.09,North,0,8.7,8.7,60,0.00,,---,0.00,VWS V14.01,2013-03-06 01:59:00,
2013-03-05 20:04:00,26.6,14.6,30.09,WNW,292,2.5,2.5,60,0.00,,---,0.00,VWS V14.01,2013-03-06 02:04:00,
2013-03-05 20:09:00,26.6,14.6,30.12,NNE,22,6.0,6.0,60,0.00,,---,0.00,VWS V14.01,2013-03-06 02:09:00,
2013-03-05 20:14:00,26.4,14.4,30.12,NNW,338,10.1,10.3,60,0.00,,---,0.00,VWS V14.01,2013-03-06 02:14:00,
2013-03-05 20:19:00,26.4,14.4,30.12,NNW,338,4.0,4.0,60,0.00,,---,0.00,VWS V14.01,2013-03-06 02:19:00,
2013-03-05 20:24:00,26.2,14.3,30.12,West,270,11.0,11.0,60,0.00,,---,0.00,VWS V14.01,2013-03-06 02:24:00,
2013-03-05 20:29:00,26.1,14.5,30.12,NNW,338,4.3,12.8,61,0.00,,---,0.00,VWS V14.01,2013-03-06 02:29:00,
2013-03-05 20:34:00,26.1,14.5,30.12,NNE,22,6.5,6.5,61,0.00,,---,0.00,VWS V14.01,2013-03-06 02:34:00,
2013-03-05 20:39:00,25.9,14.3,30.12,NNW,338,5.6,5.6,61,0.00,,---,0.00,VWS V14.01,2013-03-06 02:39:00,
2013-03-05 20:44:00,25.7,14.1,30.12,East,90,7.2,7.2,61,0.00,,---,0.00,VWS V14.01,2013-03-06 02:44:00,
2013-03-05 20:49:00,25.7,14.1,30.12,NW,315,4.9,5.4,61,0.00,,---,0.00,VWS V14.01,2013-03-06 02:49:00,
2013-03-05 20:54:00,25.5,14.0,30.12,North,0,5.6,5.6,61,0.00,,---,0.00,VWS V14.01,2013-03-06 02:54:00,
2013-03-05 20:59:00,25.3,13.8,30.12,WNW,292,6.5,6.5,61,0.00,,---,0.00,VWS V14.01,2013-03-06 02:59:00,
2013-03-05 21:04:00,25.3,13.8,30.12,NNW,338,5.4,5.4,61,0.00,,---,0.00,VWS V14.01,2013-03-06 03:04:00,
2013-03-05 21:09:00,25.2,13.6,30.12,NE,45,6.3,12.8,61,0.00,,---,0.00,VWS V14.01,2013-03-06 03:09:00,
2013-03-05 21:14:00,25.2,13.6,30.12,NNW,338,9.8,9.8,61,0.00,,---,0.00,VWS V14.01,2013-03-06 03:14:00,
2013-03-05 21:19:00,25.0,13.4,30.12,NNW,338,3.1,3.1,61,0.00,,---,0.00,VWS V14.01,2013-03-06 03:19:00,
2013-03-05 21:24:00,25.0,13.4,30.12,NNW,338,6.3,6.3,61,0.00,,---,0.00,VWS V14.01,2013-03-06 03:24:00,
2013-03-05 21:29:00,24.8,13.6,30.12,North,0,8.1,8.1,62,0.00,,---,0.00,VWS V14.01,2013-03-06 03:29:00,
2013-03-05 21:34:00,24.8,13.6,30.12,WNW,292,7.4,8.5,62,0.00,,---,0.00,VWS V14.01,2013-03-06 03:34:00,
2013-03-05 21:39:00,24.8,13.6,30.15,NNW,338,5.6,5.6,62,0.00,,---,0.00,VWS V14.01,2013-03-06 03:39:00,
2013-03-05 21:44:00,24.6,13.5,30.15,NW,315,5.8,5.8,62,0.00,,---,0.00,VWS V14.01,2013-03-06 03:44:00,
2013-03-05 21:49:00,24.6,13.5,30.15,North,0,2.9,4.9,62,0.00,,---,0.00,VWS V14.01,2013-03-06 03:49:00,
2013-03-05 21:54:00,24.6,13.5,30.15,NNW,338,4.3,5.8,62,0.00,,---,0.00,VWS V14.01,2013-03-06 03:54:00,
2013-03-05 21:59:00,24.6,13.8,30.15,NE,45,5.6,5.6,63,0.00,,---,0.00,VWS V14.01,2013-03-06 03:59:00,
2013-03-05 22:04:00,24.6,13.8,30.15,NE,45,3.6,3.6,63,0.00,,---,0.00,VWS V14.01,2013-03-06 04:04:00,
2013-03-05 22:09:00,24.6,13.8,30.15,NW,315,1.6,2.2,63,0.00,,---,0.00,VWS V14.01,2013-03-06 04:09:00,
2013-03-05 22:14:00,24.6,13.8,30.15,NE,45,3.4,4.9,63,0.00,,---,0.00,VWS V14.01,2013-03-06 04:14:00,
2013-03-05 22:19:00,24.6,13.8,30.15,WNW,292,6.0,6.0,63,0.00,,---,0.00,VWS V14.01,2013-03-06 04:19:00,
2013-03-05 22:24:00,24.4,13.7,30.15,NW,315,3.4,3.4,63,0.00,,---,0.00,VWS V14.01,2013-03-06 04:24:00,
2013-03-05 22:29:00,24.6,13.8,30.15,North,0,5.8,5.8,63,0.00,,---,0.00,VWS V14.01,2013-03-06 04:29:00,
2013-03-05 22:34:00,24.6,13.8,30.15,NNW,338,6.9,6.9,63,0.00,,---,0.00,VWS V14.01,2013-03-06 04:34:00,
2013-03-05 22:39:00,24.6,13.8,30.15,NE,45,3.4,6.0,63,0.00,,---,0.00,VWS V14.01,2013-03-06 04:39:00,
2013-03-05 22:44:00,24.6,13.8,30.15,WSW,248,2.9,8.5,63,0.00,,---,0.00,VWS V14.01,2013-03-06 04:44:00,
2013-03-05 22:49:00,24.6,13.8,30.15,WSW,248,3.1,3.6,63,0.00,,---,0.00,VWS V14.01,2013-03-06 04:49:00,
2013-03-05 22:54:00,24.6,13.8,30.15,ENE,68,5.6,5.6,63,0.00,,---,0.00,VWS V14.01,2013-03-06 04:54:00,
2013-03-05 22:59:00,24.4,13.7,30.15,WSW,248,5.4,10.7,63,0.00,,---,0.00,VWS V14.01,2013-03-06 04:59:00,
2013-03-05 23:00:00,24.4,13.7,30.15,NNE,22,3.6,5.4,63,0.00,,---,0.00,VWS V14.01,2013-03-06 05:00:00,
2013-03-05 23:05:00,24.4,13.7,30.15,NNW,338,5.6,6.5,63,0.00,,---,0.00,VWS V14.01,2013-03-06 05:05:00,
2013-03-05 23:10:00,24.4,14.0,30.15,WNW,292,4.9,4.9,64,0.00,,---,0.00,VWS V14.01,2013-03-06 05:10:00,
2013-03-05 23:15:00,24.4,14.0,30.15,NE,45,5.4,5.4,64,0.00,,---,0.00,VWS V14.01,2013-03-06 05:15:00,
2013-03-05 23:20:00,24.4,14.0,30.15,SSE,158,4.3,4.3,64,0.00,,---,0.00,VWS V14.01,2013-03-06 05:20:00,
2013-03-05 23:25:00,24.6,14.2,30.18,NNW,338,5.8,5.8,64,0.00,,---,0.00,VWS V14.01,2013-03-06 05:25:00,
2013-03-05 23:30:00,24.4,14.4,30.18,NNW,338,3.4,4.3,65,0.00,,---,0.00,VWS V14.01,2013-03-06 05:30:00,
2013-03-05 23:35:00,24.4,14.4,30.18,West,270,2.0,2.0,65,0.00,,---,0.00,VWS V14.01,2013-03-06 05:35:00,
2013-03-05 23:40:00,24.4,14.4,30.15,NW,315,4.9,4.9,65,0.00,,---,0.00,VWS V14.01,2013-03-06 05:40:00,
2013-03-05 23:46:00,24.3,14.2,30.15,NNW,338,10.3,10.3,65,0.00,,---,0.00,VWS V14.01,2013-03-06 05:46:00,
2013-03-05 23:51:00,24.3,14.2,30.15,NNW,338,4.9,4.9,65,0.00,,---,0.00,VWS V14.01,2013-03-06 05:51:00,
2013-03-05 23:56:00,24.1,14.0,30.18,NW,315,3.1,8.5,65,0.00,,---,0.00,VWS V14.01,2013-03-06 05:56:00,